sensor_id;sensor_type;location;lat;lon;timestamp;pressure;altitude;pressure_sealevel;temperature;humidity
54290;BME280;40196;39.774;2.728;2022-07-06T00:01:32;101088.03;;;27.99;56.74
54290;BME280;40196;39.774;2.728;2022-07-06T00:03:57;101065.94;;;28.07;55.69
54290;BME280;40196;39.774;2.728;2022-07-06T00:06:23;101063.50;;;28.06;53.30
54290;BME280;40196;39.774;2.728;2022-07-06T00:08:49;101034.25;;;28.08;50.37
54290;BME280;40196;39.774;2.728;2022-07-06T00:11:14;101017.59;;;28.16;51.91
54290;BME280;40196;39.774;2.728;2022-07-06T00:13:40;101007.91;;;28.20;52.18
54290;BME280;40196;39.774;2.728;2022-07-06T00:16:05;100981.13;;;28.24;50.42
54290;BME280;40196;39.774;2.728;2022-07-06T00:18:31;100980.72;;;28.32;50.08
54290;BME280;40196;39.774;2.728;2022-07-06T00:20:56;100990.25;;;28.35;53.45
54290;BME280;40196;39.774;2.728;2022-07-06T00:23:22;100987.47;;;28.29;52.15
54290;BME280;40196;39.774;2.728;2022-07-06T00:25:47;101016.38;;;28.24;52.42
54290;BME280;40196;39.774;2.728;2022-07-06T00:28:13;101047.84;;;28.25;52.20
54290;BME280;40196;39.774;2.728;2022-07-06T00:30:39;101058.84;;;28.18;55.30
54290;BME280;40196;39.774;2.728;2022-07-06T00:33:04;101083.06;;;28.08;52.40
54290;BME280;40196;39.774;2.728;2022-07-06T00:35:29;101086.00;;;28.06;50.52
54290;BME280;40196;39.774;2.728;2022-07-06T00:37:55;101103.78;;;28.14;52.99
54290;BME280;40196;39.774;2.728;2022-07-06T00:40:20;101121.69;;;28.15;49.75
54290;BME280;40196;39.774;2.728;2022-07-06T00:42:46;101120.72;;;28.21;49.05
54290;BME280;40196;39.774;2.728;2022-07-06T00:45:12;101138.78;;;28.27;53.81
54290;BME280;40196;39.774;2.728;2022-07-06T00:47:39;101151.75;;;28.25;49.48
54290;BME280;40196;39.774;2.728;2022-07-06T00:50:05;101167.31;;;28.30;45.60
54290;BME280;40196;39.774;2.728;2022-07-06T00:52:45;101180.72;;;28.37;47.43
54290;BME280;40196;39.774;2.728;2022-07-06T00:55:10;101192.03;;;28.45;47.99
54290;BME280;40196;39.774;2.728;2022-07-06T00:57:36;101200.63;;;28.54;49.97
54290;BME280;40196;39.774;2.728;2022-07-06T01:00:06;101206.66;;;28.56;49.57
54290;BME280;40196;39.774;2.728;2022-07-06T01:02:32;101154.47;;;28.25;49.78
54290;BME280;40196;39.774;2.728;2022-07-06T01:04:57;101187.56;;;28.51;49.93
54290;BME280;40196;39.774;2.728;2022-07-06T01:07:23;101177.31;;;28.53;50.55
54290;BME280;40196;39.774;2.728;2022-07-06T01:09:48;101165.63;;;28.53;49.25
54290;BME280;40196;39.774;2.728;2022-07-06T01:12:14;101157.59;;;28.46;49.56
54290;BME280;40196;39.774;2.728;2022-07-06T01:14:39;101147.88;;;28.50;48.99
54290;BME280;40196;39.774;2.728;2022-07-06T01:17:05;101110.63;;;28.57;50.40
54290;BME280;40196;39.774;2.728;2022-07-06T01:19:31;101079.78;;;28.63;52.15
54290;BME280;40196;39.774;2.728;2022-07-06T01:21:56;101037.03;;;28.70;49.33
54290;BME280;40196;39.774;2.728;2022-07-06T01:24:22;101009.41;;;28.74;47.59
54290;BME280;40196;39.774;2.728;2022-07-06T01:26:47;100998.63;;;28.79;47.98
54290;BME280;40196;39.774;2.728;2022-07-06T01:29:12;101000.94;;;28.87;48.45
54290;BME280;40196;39.774;2.728;2022-07-06T01:31:45;100987.09;;;28.88;48.65
54290;BME280;40196;39.774;2.728;2022-07-06T01:34:11;100982.81;;;28.93;48.92
54290;BME280;40196;39.774;2.728;2022-07-06T01:36:36;100979.34;;;28.97;46.27
54290;BME280;40196;39.774;2.728;2022-07-06T01:39:01;100970.38;;;28.97;47.32
54290;BME280;40196;39.774;2.728;2022-07-06T01:41:27;100982.50;;;28.89;47.76
54290;BME280;40196;39.774;2.728;2022-07-06T01:43:52;101006.13;;;28.88;48.78
54290;BME280;40196;39.774;2.728;2022-07-06T01:46:17;101042.97;;;28.84;46.63
54290;BME280;40196;39.774;2.728;2022-07-06T01:48:44;101167.84;;;28.84;45.26
54290;BME280;40196;39.774;2.728;2022-07-06T01:51:10;101261.47;;;28.82;51.04
54290;BME280;40196;39.774;2.728;2022-07-06T01:53:37;101280.47;;;28.70;53.70
54290;BME280;40196;39.774;2.728;2022-07-06T01:56:02;101323.44;;;28.61;53.53
54290;BME280;40196;39.774;2.728;2022-07-06T01:58:28;101357.63;;;28.50;54.68
54290;BME280;40196;39.774;2.728;2022-07-06T02:00:53;101377.22;;;28.29;55.83
54290;BME280;40196;39.774;2.728;2022-07-06T02:03:18;101419.91;;;28.10;56.32
54290;BME280;40196;39.774;2.728;2022-07-06T02:05:44;101459.31;;;27.94;56.85
54290;BME280;40196;39.774;2.728;2022-07-06T02:08:09;101473.16;;;27.86;58.03
54290;BME280;40196;39.774;2.728;2022-07-06T02:10:34;101522.19;;;27.84;58.85
54290;BME280;40196;39.774;2.728;2022-07-06T02:13:00;101511.00;;;27.81;60.08
54290;BME280;40196;39.774;2.728;2022-07-06T02:15:25;101522.66;;;27.81;60.37
54290;BME280;40196;39.774;2.728;2022-07-06T02:17:50;101528.31;;;27.80;60.49
54290;BME280;40196;39.774;2.728;2022-07-06T02:20:16;101525.22;;;27.76;60.48
54290;BME280;40196;39.774;2.728;2022-07-06T02:22:41;101522.97;;;27.73;60.35
54290;BME280;40196;39.774;2.728;2022-07-06T02:25:06;101518.69;;;27.65;60.33
54290;BME280;40196;39.774;2.728;2022-07-06T02:27:32;101519.59;;;27.59;59.94
54290;BME280;40196;39.774;2.728;2022-07-06T02:29:57;101504.88;;;27.67;59.98
54290;BME280;40196;39.774;2.728;2022-07-06T02:32:23;101485.34;;;27.46;61.14
54290;BME280;40196;39.774;2.728;2022-07-06T02:34:48;101441.56;;;27.31;61.50
54290;BME280;40196;39.774;2.728;2022-07-06T02:37:13;101441.13;;;27.34;61.25
54290;BME280;40196;39.774;2.728;2022-07-06T02:39:39;101419.50;;;27.27;61.28
54290;BME280;40196;39.774;2.728;2022-07-06T02:42:04;101387.41;;;27.31;60.76
54290;BME280;40196;39.774;2.728;2022-07-06T02:44:29;101379.16;;;27.38;60.24
54290;BME280;40196;39.774;2.728;2022-07-06T02:46:55;101378.28;;;27.44;59.43
54290;BME280;40196;39.774;2.728;2022-07-06T02:49:20;101392.53;;;27.51;59.31
54290;BME280;40196;39.774;2.728;2022-07-06T02:51:45;101379.03;;;27.63;59.23
54290;BME280;40196;39.774;2.728;2022-07-06T02:54:11;101366.47;;;27.68;57.55
54290;BME280;40196;39.774;2.728;2022-07-06T02:56:36;101354.25;;;27.78;57.08
54290;BME280;40196;39.774;2.728;2022-07-06T02:59:01;101352.94;;;27.80;57.03
54290;BME280;40196;39.774;2.728;2022-07-06T03:01:27;101352.47;;;27.83;57.36
54290;BME280;40196;39.774;2.728;2022-07-06T03:03:52;101331.22;;;27.68;57.18
54290;BME280;40196;39.774;2.728;2022-07-06T03:06:18;101368.31;;;27.86;57.23
54290;BME280;40196;39.774;2.728;2022-07-06T03:08:43;101371.16;;;27.91;57.24
54290;BME280;40196;39.774;2.728;2022-07-06T03:11:10;101377.09;;;28.00;56.94
54290;BME280;40196;39.774;2.728;2022-07-06T03:13:35;101416.22;;;28.04;57.17
54290;BME280;40196;39.774;2.728;2022-07-06T03:16:00;101437.06;;;28.04;57.41
54290;BME280;40196;39.774;2.728;2022-07-06T03:18:26;101446.66;;;28.06;57.18
54290;BME280;40196;39.774;2.728;2022-07-06T03:20:51;101484.47;;;28.01;57.64
54290;BME280;40196;39.774;2.728;2022-07-06T03:23:16;101562.06;;;28.02;57.13
54290;BME280;40196;39.774;2.728;2022-07-06T03:25:42;101617.94;;;28.03;57.35
54290;BME280;40196;39.774;2.728;2022-07-06T03:28:07;101614.31;;;27.91;59.60
54290;BME280;40196;39.774;2.728;2022-07-06T03:30:32;101629.53;;;27.92;59.97
54290;BME280;40196;39.774;2.728;2022-07-06T03:32:58;101650.59;;;27.90;61.54
54290;BME280;40196;39.774;2.728;2022-07-06T03:35:23;101668.25;;;27.74;62.70
54290;BME280;40196;39.774;2.728;2022-07-06T03:37:48;101657.56;;;27.61;63.42
54290;BME280;40196;39.774;2.728;2022-07-06T03:40:14;101639.78;;;27.46;63.84
54290;BME280;40196;39.774;2.728;2022-07-06T03:42:40;101635.63;;;27.44;63.84
54290;BME280;40196;39.774;2.728;2022-07-06T03:45:05;101638.50;;;27.49;63.79
54290;BME280;40196;39.774;2.728;2022-07-06T03:47:30;101643.91;;;27.49;63.68
54290;BME280;40196;39.774;2.728;2022-07-06T03:49:56;101635.69;;;27.37;63.50
54290;BME280;40196;39.774;2.728;2022-07-06T03:52:21;101643.53;;;27.45;63.35
54290;BME280;40196;39.774;2.728;2022-07-06T03:54:47;101641.41;;;27.47;63.17
54290;BME280;40196;39.774;2.728;2022-07-06T03:57:12;101649.72;;;27.52;62.80
54290;BME280;40196;39.774;2.728;2022-07-06T03:59:38;101642.38;;;27.60;62.49
54290;BME280;40196;39.774;2.728;2022-07-06T04:02:04;101628.00;;;27.59;62.21
54290;BME280;40196;39.774;2.728;2022-07-06T04:04:29;101617.59;;;27.56;61.69
54290;BME280;40196;39.774;2.728;2022-07-06T04:06:54;101605.84;;;27.62;61.56
54290;BME280;40196;39.774;2.728;2022-07-06T04:09:20;101599.38;;;27.63;61.32
54290;BME280;40196;39.774;2.728;2022-07-06T04:11:45;101593.88;;;27.70;61.39
54290;BME280;40196;39.774;2.728;2022-07-06T04:14:10;101581.53;;;27.74;60.71
54290;BME280;40196;39.774;2.728;2022-07-06T04:16:36;101576.50;;;27.78;60.32
54290;BME280;40196;39.774;2.728;2022-07-06T04:19:01;101576.88;;;27.81;60.04
54290;BME280;40196;39.774;2.728;2022-07-06T04:21:26;101565.56;;;27.84;59.85
54290;BME280;40196;39.774;2.728;2022-07-06T04:23:52;101557.84;;;27.88;59.88
54290;BME280;40196;39.774;2.728;2022-07-06T04:26:17;101542.75;;;27.92;59.75
54290;BME280;40196;39.774;2.728;2022-07-06T04:28:42;101518.50;;;27.97;59.46
54290;BME280;40196;39.774;2.728;2022-07-06T04:31:07;101505.56;;;27.99;59.30
54290;BME280;40196;39.774;2.728;2022-07-06T04:33:33;101476.66;;;27.93;59.49
54290;BME280;40196;39.774;2.728;2022-07-06T04:35:59;101465.03;;;27.86;59.32
54290;BME280;40196;39.774;2.728;2022-07-06T04:38:24;101460.16;;;27.76;59.11
54290;BME280;40196;39.774;2.728;2022-07-06T04:40:49;101483.53;;;27.77;59.10
54290;BME280;40196;39.774;2.728;2022-07-06T04:43:14;101506.47;;;27.74;59.31
54290;BME280;40196;39.774;2.728;2022-07-06T04:45:40;101521.31;;;27.72;59.24
54290;BME280;40196;39.774;2.728;2022-07-06T04:48:05;101522.88;;;27.80;59.31
54290;BME280;40196;39.774;2.728;2022-07-06T04:50:33;101500.91;;;27.88;59.06
54290;BME280;40196;39.774;2.728;2022-07-06T04:52:58;101493.63;;;27.88;58.98
54290;BME280;40196;39.774;2.728;2022-07-06T04:55:23;101486.69;;;27.92;59.00
54290;BME280;40196;39.774;2.728;2022-07-06T04:57:49;101480.56;;;27.97;58.44
54290;BME280;40196;39.774;2.728;2022-07-06T05:00:16;101470.63;;;27.91;58.36
54290;BME280;40196;39.774;2.728;2022-07-06T05:02:42;101468.75;;;27.91;58.33
54290;BME280;40196;39.774;2.728;2022-07-06T05:05:07;101456.53;;;27.82;58.63
54290;BME280;40196;39.774;2.728;2022-07-06T05:07:34;101453.81;;;27.82;58.42
54290;BME280;40196;39.774;2.728;2022-07-06T05:10:04;101440.63;;;27.86;58.84
54290;BME280;40196;39.774;2.728;2022-07-06T05:12:30;101422.97;;;27.83;59.08
54290;BME280;40196;39.774;2.728;2022-07-06T05:14:55;101411.31;;;27.83;59.27
54290;BME280;40196;39.774;2.728;2022-07-06T05:17:20;101416.19;;;27.74;59.53
54290;BME280;40196;39.774;2.728;2022-07-06T05:19:46;101407.47;;;27.72;59.87
54290;BME280;40196;39.774;2.728;2022-07-06T05:22:11;101398.66;;;27.77;59.89
54290;BME280;40196;39.774;2.728;2022-07-06T05:24:36;101386.53;;;27.79;59.95
54290;BME280;40196;39.774;2.728;2022-07-06T05:27:02;101374.88;;;27.79;60.01
54290;BME280;40196;39.774;2.728;2022-07-06T05:29:27;101371.31;;;27.78;60.12
54290;BME280;40196;39.774;2.728;2022-07-06T05:31:53;101362.75;;;27.81;60.00
54290;BME280;40196;39.774;2.728;2022-07-06T05:34:18;101348.69;;;27.84;59.62
54290;BME280;40196;39.774;2.728;2022-07-06T05:36:43;101343.28;;;27.84;59.65
54290;BME280;40196;39.774;2.728;2022-07-06T05:39:09;101343.91;;;27.86;59.66
54290;BME280;40196;39.774;2.728;2022-07-06T05:41:34;101334.28;;;27.90;59.57
54290;BME280;40196;39.774;2.728;2022-07-06T05:43:59;101338.25;;;27.88;59.41
54290;BME280;40196;39.774;2.728;2022-07-06T05:46:25;101341.34;;;27.91;59.78
54290;BME280;40196;39.774;2.728;2022-07-06T05:48:50;101336.97;;;27.90;60.32
54290;BME280;40196;39.774;2.728;2022-07-06T05:51:34;101325.66;;;27.93;60.34
54290;BME280;40196;39.774;2.728;2022-07-06T05:53:59;101338.78;;;28.08;59.76
54290;BME280;40196;39.774;2.728;2022-07-06T05:56:25;101345.38;;;28.12;60.00
54290;BME280;40196;39.774;2.728;2022-07-06T05:58:50;101349.13;;;28.23;59.32
54290;BME280;40196;39.774;2.728;2022-07-06T06:01:15;101344.78;;;28.22;59.66
54290;BME280;40196;39.774;2.728;2022-07-06T06:03:41;101336.19;;;28.25;58.87
54290;BME280;40196;39.774;2.728;2022-07-06T06:06:06;101328.06;;;28.25;59.99
54290;BME280;40196;39.774;2.728;2022-07-06T06:08:31;101333.94;;;28.34;59.58
54290;BME280;40196;39.774;2.728;2022-07-06T06:10:57;101325.81;;;28.34;58.02
54290;BME280;40196;39.774;2.728;2022-07-06T06:13:22;101322.38;;;28.39;57.42
54290;BME280;40196;39.774;2.728;2022-07-06T06:15:48;101316.03;;;28.45;57.03
54290;BME280;40196;39.774;2.728;2022-07-06T06:18:13;101315.53;;;28.48;57.82
54290;BME280;40196;39.774;2.728;2022-07-06T06:20:41;101311.75;;;28.49;58.02
54290;BME280;40196;39.774;2.728;2022-07-06T06:23:07;101307.06;;;28.56;57.98
54290;BME280;40196;39.774;2.728;2022-07-06T06:25:34;101299.25;;;28.60;56.80
54290;BME280;40196;39.774;2.728;2022-07-06T06:27:59;101300.22;;;28.54;54.08
54290;BME280;40196;39.774;2.728;2022-07-06T06:30:25;101295.16;;;28.57;54.00
54290;BME280;40196;39.774;2.728;2022-07-06T06:32:51;101305.19;;;28.57;54.58
54290;BME280;40196;39.774;2.728;2022-07-06T06:35:16;101293.38;;;28.51;55.29
54290;BME280;40196;39.774;2.728;2022-07-06T06:37:41;101290.75;;;28.56;55.54
54290;BME280;40196;39.774;2.728;2022-07-06T06:40:07;101278.13;;;28.50;55.00
54290;BME280;40196;39.774;2.728;2022-07-06T06:42:35;101281.81;;;28.44;52.70
54290;BME280;40196;39.774;2.728;2022-07-06T06:45:00;101283.22;;;28.58;51.95
54290;BME280;40196;39.774;2.728;2022-07-06T06:47:25;101290.66;;;28.63;53.24
54290;BME280;40196;39.774;2.728;2022-07-06T06:49:51;101298.19;;;28.73;53.03
54290;BME280;40196;39.774;2.728;2022-07-06T06:52:16;101303.34;;;28.86;52.12
54290;BME280;40196;39.774;2.728;2022-07-06T06:54:41;101306.41;;;28.89;50.15
54290;BME280;40196;39.774;2.728;2022-07-06T06:57:07;101317.75;;;28.86;47.37
54290;BME280;40196;39.774;2.728;2022-07-06T06:59:32;101321.38;;;28.92;47.76
54290;BME280;40196;39.774;2.728;2022-07-06T07:01:57;101320.56;;;28.92;47.21
54290;BME280;40196;39.774;2.728;2022-07-06T07:04:23;101329.25;;;29.05;47.26
54290;BME280;40196;39.774;2.728;2022-07-06T07:06:48;101322.97;;;29.05;48.73
54290;BME280;40196;39.774;2.728;2022-07-06T07:09:13;101332.56;;;29.07;48.42
54290;BME280;40196;39.774;2.728;2022-07-06T07:11:39;101339.03;;;29.06;48.65
54290;BME280;40196;39.774;2.728;2022-07-06T07:14:04;101340.00;;;29.00;48.34
54290;BME280;40196;39.774;2.728;2022-07-06T07:16:30;101339.31;;;28.93;47.53
54290;BME280;40196;39.774;2.728;2022-07-06T07:18:55;101334.16;;;28.80;46.66
54290;BME280;40196;39.774;2.728;2022-07-06T07:21:21;101336.63;;;28.81;47.15
54290;BME280;40196;39.774;2.728;2022-07-06T07:23:46;101335.34;;;28.84;46.79
54290;BME280;40196;39.774;2.728;2022-07-06T07:26:11;101330.34;;;28.93;47.14
54290;BME280;40196;39.774;2.728;2022-07-06T07:28:37;101313.69;;;29.01;47.44
54290;BME280;40196;39.774;2.728;2022-07-06T07:31:02;101316.16;;;29.02;46.29
54290;BME280;40196;39.774;2.728;2022-07-06T07:33:28;101302.22;;;28.99;46.81
54290;BME280;40196;39.774;2.728;2022-07-06T07:35:54;101301.59;;;29.08;47.39
54290;BME280;40196;39.774;2.728;2022-07-06T07:38:19;101299.38;;;29.17;46.81
54290;BME280;40196;39.774;2.728;2022-07-06T07:40:44;101289.16;;;29.24;46.55
54290;BME280;40196;39.774;2.728;2022-07-06T07:43:10;101294.81;;;29.35;46.35
54290;BME280;40196;39.774;2.728;2022-07-06T07:45:35;101299.94;;;29.48;46.66
54290;BME280;40196;39.774;2.728;2022-07-06T07:48:00;101291.63;;;29.55;45.90
54290;BME280;40196;39.774;2.728;2022-07-06T07:50:26;101302.16;;;29.51;45.97
54290;BME280;40196;39.774;2.728;2022-07-06T07:52:52;101312.03;;;29.57;46.14
54290;BME280;40196;39.774;2.728;2022-07-06T07:55:17;101327.63;;;29.62;47.27
54290;BME280;40196;39.774;2.728;2022-07-06T07:57:42;101327.44;;;29.52;48.62
54290;BME280;40196;39.774;2.728;2022-07-06T08:00:08;101327.53;;;29.57;52.14
54290;BME280;40196;39.774;2.728;2022-07-06T08:02:33;101321.09;;;29.63;51.93
54290;BME280;40196;39.774;2.728;2022-07-06T08:04:59;101316.81;;;29.50;49.36
54290;BME280;40196;39.774;2.728;2022-07-06T08:07:24;101330.75;;;29.25;49.52
54290;BME280;40196;39.774;2.728;2022-07-06T08:09:50;101346.72;;;29.09;50.29
54290;BME280;40196;39.774;2.728;2022-07-06T08:12:15;101349.66;;;29.20;50.41
54290;BME280;40196;39.774;2.728;2022-07-06T08:14:40;101340.06;;;29.29;50.24
54290;BME280;40196;39.774;2.728;2022-07-06T08:17:05;101339.25;;;29.28;50.04
54290;BME280;40196;39.774;2.728;2022-07-06T08:19:31;101339.88;;;29.19;48.43
54290;BME280;40196;39.774;2.728;2022-07-06T08:21:57;101349.72;;;28.96;48.46
54290;BME280;40196;39.774;2.728;2022-07-06T08:24:22;101350.19;;;28.93;47.11
54290;BME280;40196;39.774;2.728;2022-07-06T08:26:47;101347.09;;;29.01;46.42
54290;BME280;40196;39.774;2.728;2022-07-06T08:29:13;101352.75;;;29.12;46.54
54290;BME280;40196;39.774;2.728;2022-07-06T08:31:38;101351.75;;;29.29;45.87
54290;BME280;40196;39.774;2.728;2022-07-06T08:34:04;101350.16;;;29.45;44.76
54290;BME280;40196;39.774;2.728;2022-07-06T08:36:29;101357.53;;;29.62;44.90
54290;BME280;40196;39.774;2.728;2022-07-06T08:38:54;101360.28;;;29.79;44.84
54290;BME280;40196;39.774;2.728;2022-07-06T08:41:23;101364.69;;;29.97;42.29
54290;BME280;40196;39.774;2.728;2022-07-06T08:43:50;101355.13;;;30.11;39.17
54290;BME280;40196;39.774;2.728;2022-07-06T08:46:16;101351.41;;;30.17;40.37
54290;BME280;40196;39.774;2.728;2022-07-06T08:48:41;101381.13;;;30.36;40.52
54290;BME280;40196;39.774;2.728;2022-07-06T08:51:07;101394.06;;;30.45;40.84
54290;BME280;40196;39.774;2.728;2022-07-06T08:53:33;101393.84;;;30.52;40.32
54290;BME280;40196;39.774;2.728;2022-07-06T08:55:58;101404.31;;;30.60;40.69
54290;BME280;40196;39.774;2.728;2022-07-06T08:58:24;101412.09;;;30.69;38.84
54290;BME280;40196;39.774;2.728;2022-07-06T09:00:50;101429.88;;;30.76;39.10
54290;BME280;40196;39.774;2.728;2022-07-06T09:03:15;101416.09;;;30.83;39.31
54290;BME280;40196;39.774;2.728;2022-07-06T09:05:42;101411.44;;;30.83;39.20
54290;BME280;40196;39.774;2.728;2022-07-06T09:08:10;101405.09;;;30.95;39.09
54290;BME280;40196;39.774;2.728;2022-07-06T09:10:36;101404.53;;;30.93;38.33
54290;BME280;40196;39.774;2.728;2022-07-06T09:13:06;101414.03;;;31.12;37.32
54290;BME280;40196;39.774;2.728;2022-07-06T09:15:32;101420.19;;;31.24;37.47
54290;BME280;40196;39.774;2.728;2022-07-06T09:17:58;101418.66;;;31.34;37.19
54290;BME280;40196;39.774;2.728;2022-07-06T09:20:23;101413.22;;;31.34;37.13
54290;BME280;40196;39.774;2.728;2022-07-06T09:22:49;101413.13;;;31.29;36.73
54290;BME280;40196;39.774;2.728;2022-07-06T09:25:15;101406.38;;;31.31;36.39
54290;BME280;40196;39.774;2.728;2022-07-06T09:27:44;101410.56;;;31.39;36.75
54290;BME280;40196;39.774;2.728;2022-07-06T09:30:12;101405.00;;;31.51;37.11
54290;BME280;40196;39.774;2.728;2022-07-06T09:32:39;101397.41;;;31.58;35.42
54290;BME280;40196;39.774;2.728;2022-07-06T09:35:04;101399.13;;;31.64;36.00
54290;BME280;40196;39.774;2.728;2022-07-06T09:37:30;101386.66;;;31.73;35.19
54290;BME280;40196;39.774;2.728;2022-07-06T09:39:55;101392.72;;;31.80;34.95
54290;BME280;40196;39.774;2.728;2022-07-06T09:42:24;101393.84;;;31.84;34.95
54290;BME280;40196;39.774;2.728;2022-07-06T09:44:51;101399.84;;;31.81;34.81
54290;BME280;40196;39.774;2.728;2022-07-06T09:47:16;101425.94;;;31.72;35.18
54290;BME280;40196;39.774;2.728;2022-07-06T09:49:42;101456.44;;;31.69;35.13
54290;BME280;40196;39.774;2.728;2022-07-06T09:52:09;101466.78;;;31.67;35.75
54290;BME280;40196;39.774;2.728;2022-07-06T09:54:35;101462.34;;;31.61;35.90
54290;BME280;40196;39.774;2.728;2022-07-06T09:57:02;101434.81;;;31.62;36.41
54290;BME280;40196;39.774;2.728;2022-07-06T09:59:28;101381.63;;;31.60;36.82
54290;BME280;40196;39.774;2.728;2022-07-06T10:01:58;101358.72;;;31.61;40.47
54290;BME280;40196;39.774;2.728;2022-07-06T10:04:25;101361.16;;;31.57;47.86
54290;BME280;40196;39.774;2.728;2022-07-06T10:06:51;101388.63;;;31.29;43.59
54290;BME280;40196;39.774;2.728;2022-07-06T10:09:17;101420.44;;;31.01;42.95
54290;BME280;40196;39.774;2.728;2022-07-06T10:11:47;101430.03;;;30.86;40.61
54290;BME280;40196;39.774;2.728;2022-07-06T10:14:15;101429.28;;;30.74;46.39
54290;BME280;40196;39.774;2.728;2022-07-06T10:16:42;101429.09;;;30.59;43.90
54290;BME280;40196;39.774;2.728;2022-07-06T10:19:07;101454.91;;;30.56;44.17
54290;BME280;40196;39.774;2.728;2022-07-06T10:21:37;101480.06;;;30.63;41.05
54290;BME280;40196;39.774;2.728;2022-07-06T10:24:06;101494.66;;;30.57;38.96
54290;BME280;40196;39.774;2.728;2022-07-06T10:26:32;101494.81;;;30.67;39.28
54290;BME280;40196;39.774;2.728;2022-07-06T10:28:58;101483.03;;;30.62;38.19
54290;BME280;40196;39.774;2.728;2022-07-06T10:31:25;101461.75;;;30.59;38.20
54290;BME280;40196;39.774;2.728;2022-07-06T10:33:52;101440.63;;;30.66;38.74
54290;BME280;40196;39.774;2.728;2022-07-06T10:36:17;101419.81;;;30.77;37.91
54290;BME280;40196;39.774;2.728;2022-07-06T10:38:44;101389.53;;;30.90;37.48
54290;BME280;40196;39.774;2.728;2022-07-06T10:41:11;101387.81;;;31.06;36.41
54290;BME280;40196;39.774;2.728;2022-07-06T10:43:41;101364.28;;;31.22;35.00
54290;BME280;40196;39.774;2.728;2022-07-06T10:46:08;101336.34;;;31.32;35.41
54290;BME280;40196;39.774;2.728;2022-07-06T10:51:05;101315.78;;;31.46;33.63
54290;BME280;40196;39.774;2.728;2022-07-06T10:53:34;101307.91;;;31.50;32.56
54290;BME280;40196;39.774;2.728;2022-07-06T10:56:01;101311.19;;;31.47;32.35
54290;BME280;40196;39.774;2.728;2022-07-06T11:00:59;101309.66;;;31.34;33.40
54290;BME280;40196;39.774;2.728;2022-07-06T11:06:13;101313.75;;;31.36;33.41
54290;BME280;40196;39.774;2.728;2022-07-06T11:08:49;101317.69;;;31.46;34.02
54290;BME280;40196;39.774;2.728;2022-07-06T11:16:13;101408.66;;;32.21;33.18
54290;BME280;40196;39.774;2.728;2022-07-06T11:18:42;101430.88;;;32.35;32.86
54290;BME280;40196;39.774;2.728;2022-07-06T11:21:17;101434.22;;;32.47;32.00
54290;BME280;40196;39.774;2.728;2022-07-06T11:23:43;101429.06;;;32.51;31.80
54290;BME280;40196;39.774;2.728;2022-07-06T11:26:10;101434.06;;;32.59;31.50
54290;BME280;40196;39.774;2.728;2022-07-06T11:28:36;101441.69;;;32.57;31.27
54290;BME280;40196;39.774;2.728;2022-07-06T11:31:02;101456.84;;;32.75;31.97
54290;BME280;40196;39.774;2.728;2022-07-06T11:33:30;101477.34;;;32.77;30.27
54290;BME280;40196;39.774;2.728;2022-07-06T11:38:40;101464.75;;;33.19;35.08
54290;BME280;40196;39.774;2.728;2022-07-06T11:41:05;101465.09;;;33.38;34.54
54290;BME280;40196;39.774;2.728;2022-07-06T11:43:31;101450.06;;;33.35;34.70
54290;BME280;40196;39.774;2.728;2022-07-06T11:45:56;101470.59;;;33.48;34.17
54290;BME280;40196;39.774;2.728;2022-07-06T11:48:21;101467.59;;;33.50;33.94
54290;BME280;40196;39.774;2.728;2022-07-06T11:50:59;101472.25;;;33.44;34.01
54290;BME280;40196;39.774;2.728;2022-07-06T11:53:25;101468.41;;;33.50;33.40
54290;BME280;40196;39.774;2.728;2022-07-06T11:55:50;101476.69;;;33.61;32.88
54290;BME280;40196;39.774;2.728;2022-07-06T11:58:17;101475.38;;;33.78;33.53
54290;BME280;40196;39.774;2.728;2022-07-06T12:01:02;101475.13;;;33.95;31.58
54290;BME280;40196;39.774;2.728;2022-07-06T12:03:27;101486.38;;;34.04;31.73
54290;BME280;40196;39.774;2.728;2022-07-06T12:05:53;101487.19;;;34.00;30.61
54290;BME280;40196;39.774;2.728;2022-07-06T12:08:18;101491.53;;;33.85;31.48
54290;BME280;40196;39.774;2.728;2022-07-06T12:10:43;101488.50;;;33.76;31.12
54290;BME280;40196;39.774;2.728;2022-07-06T12:13:08;101473.44;;;33.69;31.35
54290;BME280;40196;39.774;2.728;2022-07-06T12:15:34;101477.00;;;33.79;31.39
54290;BME280;40196;39.774;2.728;2022-07-06T12:17:59;101475.63;;;33.72;31.30
54290;BME280;40196;39.774;2.728;2022-07-06T12:20:24;101484.13;;;33.75;31.41
54290;BME280;40196;39.774;2.728;2022-07-06T12:23:00;101484.97;;;33.91;31.01
54290;BME280;40196;39.774;2.728;2022-07-06T12:25:29;101492.94;;;34.08;31.33
54290;BME280;40196;39.774;2.728;2022-07-06T12:27:55;101492.97;;;34.18;30.46
54290;BME280;40196;39.774;2.728;2022-07-06T12:30:20;101486.97;;;34.27;30.62
54290;BME280;40196;39.774;2.728;2022-07-06T12:32:45;101495.44;;;34.35;30.81
54290;BME280;40196;39.774;2.728;2022-07-06T12:35:11;101484.75;;;34.49;29.73
54290;BME280;40196;39.774;2.728;2022-07-06T12:37:36;101463.41;;;34.72;29.32
54290;BME280;40196;39.774;2.728;2022-07-06T12:40:02;101465.56;;;34.85;29.56
54290;BME280;40196;39.774;2.728;2022-07-06T12:42:29;101453.44;;;35.07;28.87
54290;BME280;40196;39.774;2.728;2022-07-06T12:44:55;101445.22;;;35.07;29.14
54290;BME280;40196;39.774;2.728;2022-07-06T12:47:21;101409.25;;;35.08;29.04
54290;BME280;40196;39.774;2.728;2022-07-06T12:49:48;101368.72;;;35.05;29.51
54290;BME280;40196;39.774;2.728;2022-07-06T12:52:16;101339.19;;;34.97;29.68
54290;BME280;40196;39.774;2.728;2022-07-06T12:54:46;101380.56;;;35.01;29.53
54290;BME280;40196;39.774;2.728;2022-07-06T12:59:39;101404.59;;;35.19;29.39
54290;BME280;40196;39.774;2.728;2022-07-06T13:02:05;101394.63;;;35.33;28.51